Main page
METAR-TAF:

METAR-TAF

Airports :

Rivera International Airport

Rivera, Uruguay

latitude: 30-53S, longitude: 055-32W, elevation: 205 m

METAR: missing

Time: 03:54 (06:54 UTC)

Forecast

The report was made 1 hour and 24 minutes ago, at 05:30 UTC
Forecast valid from 24 at 00 UTC to 24 at 24 UTC
Wind 8 kt from the South
Visibility 10 km or more
Broken clouds at a height of 800 ft
Overcast at a height of 6000 ft
Temporary
from 24 at 06 UTC to 24 at 16 UTC
Visibility: 2000 m
Broken clouds at a height of 500 ft
Overcast at a height of 5000 ft
rain, drizzle
Temporary
from 24 at 11 UTC to 24 at 16 UTC
Wind 18 kt from the South/Southeast with gusts up to 28 kt

TAF: SURV 240530Z 2400/2424 17008KT 9999 BKN008 OVC060 TX15/2418Z TN06/2410Z TEMPO 2406/2416 2000 RA DZ BKN005 OVC050 TEMPO 2411/2416 15018G28KT

Weather observations and forecasts of more than 4000 airports (METAR and TAF reports).

The available stations are represented by yellow and red dots on the map.

Hover mouse over dot to see the name of the station.

Then click to see weather observations and forecasts.

To change the map : click on the green buttons with a black cross to zoom in, on the green button with a dash to zoom out, or on the green arrows for adjacent maps.


METAR-TAF: